EXS5YL EGNX-LEIB
Flight info
| Callsign | EXS5YL |
|---|---|
| Flight time | N/A |
| Altitude | 35000 |
| Route | SAPCO Y53 DTY M605 SILVA Q41 COWLY DCT GWC UN859 SOPIL DCT BALAN DCT EVPOK DCT NARAK DCT GAI DCT LOMRA DCT ROCAN DCT PUMAL DCT XEPLA DCT BCN Z174 CORDA |
| Aircraft | B738/M-SDE2E3FGHIRWXY/LB1 |
Departure
| Time | 2026-05-04 16:16 |
|---|---|
| Airport | East Midlands Airport (EGNX) |
Arrival
| Time | N/A |
|---|---|
| Airport | Ibiza Airport (LEIB) |
| Time | Latitude | Longitude | Altitude | Speed | Heading |
|---|---|---|---|---|---|
| 2026-05-04 16:13 | 52.82908 | -1.34098 | 300 ft | 17 kts | 269° |
| 2026-05-04 16:14 | 52.82906 | -1.34476 | 305 ft | 16 kts | 268° |
| 2026-05-04 16:14 | 52.82900 | -1.34823 | 305 ft | 13 kts | 268° |
| 2026-05-04 16:15 | 52.83048 | -1.34917 | 305 ft | 9 kts | 41° |
| 2026-05-04 16:16 | 52.83066 | -1.34645 | 302 ft | 37 kts | 88° |
| 2026-05-04 16:16 | 52.83099 | -1.29649 | 1634 ft | 200 kts | 91° |
| 2026-05-04 16:17 | 52.82822 | -1.24861 | 3661 ft | 219 kts | 103° |
| 2026-05-04 16:18 | 52.79820 | -1.18203 | 6253 ft | 273 kts | 135° |
| 2026-05-04 16:18 | 52.78488 | -1.15937 | 7185 ft | 277 kts | 140° |
| 2026-05-04 16:19 | 52.73366 | -1.16804 | 9011 ft | 277 kts | 227° |
| 2026-05-04 16:19 | 52.70528 | -1.21266 | 8964 ft | 281 kts | 221° |
| 2026-05-04 16:20 | 52.66032 | -1.27270 | 8972 ft | 275 kts | 219° |
| 2026-05-04 16:20 | 52.63027 | -1.31173 | 8974 ft | 276 kts | 219° |
| 2026-05-04 16:21 | 52.58199 | -1.36309 | 8986 ft | 280 kts | 194° |
| 2026-05-04 16:22 | 52.54313 | -1.35964 | 8970 ft | 286 kts | 163° |
| 2026-05-04 16:22 | 52.48715 | -1.32198 | 10723 ft | 299 kts | 159° |
| 2026-05-04 16:23 | 52.42336 | -1.27807 | 12101 ft | 346 kts | 159° |
| 2026-05-04 16:24 | 52.33290 | -1.21675 | 15221 ft | 358 kts | 159° |
| 2026-05-04 16:25 | 52.28638 | -1.18541 | 16712 ft | 363 kts | 159° |
| 2026-05-04 16:26 | 52.19135 | -1.12164 | 19362 ft | 376 kts | 159° |
| 2026-05-04 16:26 | 52.11446 | -1.09192 | 21163 ft | 382 kts | 170° |
| 2026-05-04 16:27 | 52.06185 | -1.07542 | 22262 ft | 390 kts | 170° |
| 2026-05-04 16:28 | 51.98131 | -1.04921 | 23859 ft | 398 kts | 170° |
| 2026-05-04 16:28 | 51.89929 | -1.02196 | 25295 ft | 403 kts | 170° |
| 2026-05-04 16:29 | 51.78741 | -1.01953 | 27120 ft | 405 kts | 191° |
| 2026-05-04 16:30 | 51.70364 | -1.04243 | 28269 ft | 412 kts | 190° |
| 2026-05-04 16:31 | 51.64695 | -1.05688 | 29108 ft | 415 kts | 188° |
| 2026-05-04 16:31 | 51.56079 | -1.04373 | 30563 ft | 413 kts | 168° |
| 2026-05-04 16:32 | 51.47723 | -1.00848 | 31569 ft | 416 kts | 167° |
| 2026-05-04 16:33 | 51.42148 | -0.98536 | 32421 ft | 412 kts | 167° |
| 2026-05-04 16:33 | 51.36617 | -0.96273 | 33054 ft | 413 kts | 168° |
| 2026-05-04 16:34 | 51.31021 | -0.93999 | 33787 ft | 411 kts | 167° |
| 2026-05-04 16:34 | 51.28250 | -0.92875 | 34111 ft | 411 kts | 167° |
| 2026-05-04 16:35 | 51.19912 | -0.89501 | 34773 ft | 414 kts | 167° |
| 2026-05-04 16:35 | 51.11455 | -0.86091 | 35008 ft | 419 kts | 167° |
| 2026-05-04 16:36 | 51.03038 | -0.82707 | 34984 ft | 413 kts | 167° |
| 2026-05-04 16:37 | 50.94690 | -0.79366 | 34992 ft | 412 kts | 167° |
| 2026-05-04 16:38 | 50.83729 | -0.73994 | 35007 ft | 416 kts | 153° |
| 2026-05-04 16:39 | 50.71547 | -0.61525 | 34982 ft | 418 kts | 150° |
| 2026-05-04 16:40 | 50.61770 | -0.51601 | 34994 ft | 418 kts | 150° |
| 2026-05-04 16:41 | 50.49498 | -0.39250 | 34987 ft | 419 kts | 150° |
| 2026-05-04 16:43 | 50.37193 | -0.26941 | 34982 ft | 420 kts | 150° |
| 2026-05-04 16:43 | 50.29796 | -0.19576 | 34982 ft | 421 kts | 150° |
| 2026-05-04 16:45 | 50.14964 | -0.04891 | 34974 ft | 421 kts | 151° |
| 2026-05-04 16:46 | 50.07229 | 0.01229 | 34989 ft | 412 kts | 168° |
| 2026-05-04 16:46 | 50.01641 | 0.03380 | 34961 ft | 412 kts | 169° |
| 2026-05-04 16:47 | 49.90558 | 0.07630 | 34972 ft | 410 kts | 169° |
| 2026-05-04 16:48 | 49.79506 | 0.11945 | 34968 ft | 408 kts | 169° |
| 2026-05-04 16:49 | 49.68539 | 0.16207 | 34980 ft | 406 kts | 169° |
| 2026-05-04 16:50 | 49.57589 | 0.20630 | 34991 ft | 405 kts | 168° |
| 2026-05-04 16:51 | 49.50339 | 0.23569 | 34973 ft | 405 kts | 168° |
| 2026-05-04 16:52 | 49.39446 | 0.27953 | 34972 ft | 404 kts | 168° |
| 2026-05-04 16:53 | 49.31278 | 0.31227 | 34954 ft | 406 kts | 169° |
| 2026-05-04 16:54 | 49.20351 | 0.35807 | 34960 ft | 405 kts | 168° |
| 2026-05-04 16:55 | 49.04009 | 0.42661 | 34928 ft | 407 kts | 168° |
| 2026-05-04 16:56 | 48.90454 | 0.48300 | 34943 ft | 402 kts | 169° |
| 2026-05-04 16:57 | 48.82376 | 0.51646 | 34939 ft | 401 kts | 169° |
| 2026-05-04 16:58 | 48.71613 | 0.55949 | 34940 ft | 400 kts | 170° |
| 2026-05-04 17:00 | 48.55431 | 0.62244 | 34938 ft | 400 kts | 170° |
| 2026-05-04 17:01 | 48.41961 | 0.67652 | 34938 ft | 401 kts | 169° |
| 2026-05-04 17:02 | 48.31209 | 0.72015 | 34936 ft | 400 kts | 170° |
| 2026-05-04 17:03 | 48.23168 | 0.75250 | 34932 ft | 398 kts | 170° |
| 2026-05-04 17:03 | 48.15117 | 0.78417 | 34930 ft | 397 kts | 170° |
| 2026-05-04 17:04 | 48.04456 | 0.82598 | 34930 ft | 397 kts | 171° |
| 2026-05-04 17:05 | 47.93780 | 0.86773 | 34925 ft | 396 kts | 171° |
| 2026-05-04 17:06 | 47.85748 | 0.89903 | 34916 ft | 397 kts | 171° |
| 2026-05-04 17:07 | 47.78616 | 0.92669 | 34912 ft | 397 kts | 171° |
| 2026-05-04 17:07 | 47.72386 | 0.95076 | 34918 ft | 398 kts | 171° |
| 2026-05-04 17:08 | 47.64335 | 0.98180 | 34911 ft | 398 kts | 171° |
| 2026-05-04 17:09 | 47.58963 | 1.00246 | 34921 ft | 398 kts | 171° |
| 2026-05-04 17:09 | 47.53604 | 1.02303 | 34917 ft | 399 kts | 171° |
| 2026-05-04 17:10 | 47.40118 | 1.06438 | 34925 ft | 389 kts | 186° |
| 2026-05-04 17:11 | 47.34705 | 1.06262 | 34906 ft | 390 kts | 186° |
| 2026-05-04 17:12 | 47.26575 | 1.06036 | 34930 ft | 390 kts | 185° |
| 2026-05-04 17:13 | 47.13026 | 1.05732 | 34907 ft | 390 kts | 185° |
| 2026-05-04 17:14 | 47.02175 | 1.05490 | 34908 ft | 389 kts | 186° |
| 2026-05-04 17:15 | 46.94069 | 1.05150 | 34906 ft | 388 kts | 186° |
| 2026-05-04 17:16 | 46.83255 | 1.04662 | 34911 ft | 387 kts | 186° |
| 2026-05-04 17:17 | 46.72598 | 1.04202 | 34916 ft | 387 kts | 186° |
| 2026-05-04 17:18 | 46.61839 | 1.03739 | 34909 ft | 387 kts | 186° |
| 2026-05-04 17:19 | 46.51033 | 1.03559 | 34877 ft | 393 kts | 178° |
| 2026-05-04 17:20 | 46.40262 | 1.07059 | 34921 ft | 397 kts | 172° |
| 2026-05-04 17:20 | 46.32177 | 1.09788 | 34899 ft | 399 kts | 172° |
| 2026-05-04 17:21 | 46.21359 | 1.13388 | 34897 ft | 400 kts | 172° |
| 2026-05-04 17:22 | 46.15908 | 1.15195 | 34916 ft | 400 kts | 172° |
| 2026-05-04 17:23 | 46.05028 | 1.18790 | 34918 ft | 402 kts | 172° |
| 2026-05-04 17:24 | 45.96824 | 1.21492 | 34916 ft | 403 kts | 172° |
| 2026-05-04 17:25 | 45.85904 | 1.25076 | 34925 ft | 403 kts | 172° |
| 2026-05-04 17:26 | 45.74931 | 1.28662 | 34922 ft | 404 kts | 172° |
| 2026-05-04 17:27 | 45.61223 | 1.33123 | 34909 ft | 404 kts | 172° |
| 2026-05-04 17:28 | 45.50237 | 1.36683 | 34921 ft | 404 kts | 172° |
| 2026-05-04 17:29 | 45.33760 | 1.41992 | 34918 ft | 404 kts | 172° |
| 2026-05-04 17:31 | 45.20964 | 1.46097 | 34946 ft | 405 kts | 172° |
| 2026-05-04 17:32 | 45.07203 | 1.50490 | 34938 ft | 405 kts | 172° |
| 2026-05-04 17:33 | 44.96273 | 1.53965 | 35003 ft | 397 kts | 171° |
| 2026-05-04 17:34 | 44.85654 | 1.57329 | 34946 ft | 389 kts | 171° |
| 2026-05-04 17:35 | 44.72416 | 1.61499 | 34936 ft | 391 kts | 171° |
| 2026-05-04 17:36 | 44.67103 | 1.63169 | 34933 ft | 392 kts | 171° |
| 2026-05-04 17:36 | 44.61759 | 1.64845 | 34930 ft | 393 kts | 171° |
| 2026-05-04 17:37 | 44.56419 | 1.66517 | 34934 ft | 394 kts | 171° |
| 2026-05-04 17:37 | 44.51048 | 1.68195 | 34922 ft | 395 kts | 171° |
| 2026-05-04 17:38 | 44.45686 | 1.69868 | 34939 ft | 395 kts | 171° |
| 2026-05-04 17:38 | 44.40319 | 1.71539 | 34925 ft | 396 kts | 171° |
| 2026-05-04 17:39 | 44.32220 | 1.74056 | 34928 ft | 396 kts | 171° |
| 2026-05-04 17:39 | 44.26827 | 1.75562 | 34917 ft | 395 kts | 174° |
| 2026-05-04 17:40 | 44.21429 | 1.76729 | 34932 ft | 395 kts | 174° |
| 2026-05-04 17:40 | 44.16001 | 1.77887 | 34931 ft | 395 kts | 174° |
| 2026-05-04 17:41 | 44.10570 | 1.79072 | 34927 ft | 395 kts | 174° |
| 2026-05-04 17:41 | 44.05124 | 1.80268 | 34940 ft | 395 kts | 174° |
| 2026-05-04 17:42 | 43.99674 | 1.81464 | 34931 ft | 396 kts | 174° |
| 2026-05-04 17:42 | 43.94226 | 1.82571 | 34923 ft | 395 kts | 178° |
| 2026-05-04 17:43 | 43.88769 | 1.83133 | 34937 ft | 394 kts | 179° |
| 2026-05-04 17:43 | 43.83297 | 1.83612 | 34941 ft | 394 kts | 179° |
| 2026-05-04 17:44 | 43.77806 | 1.84118 | 34928 ft | 395 kts | 179° |
| 2026-05-04 17:44 | 43.72318 | 1.84644 | 34932 ft | 395 kts | 179° |
| 2026-05-04 17:45 | 43.66834 | 1.85176 | 34937 ft | 395 kts | 179° |
| 2026-05-04 17:45 | 43.61354 | 1.85706 | 34947 ft | 395 kts | 179° |
| 2026-05-04 17:46 | 43.55858 | 1.86237 | 34917 ft | 397 kts | 179° |
| 2026-05-04 17:46 | 43.50349 | 1.86767 | 34929 ft | 397 kts | 179° |
| 2026-05-04 17:47 | 43.44852 | 1.87297 | 34934 ft | 396 kts | 179° |
| 2026-05-04 17:47 | 43.39376 | 1.87823 | 34927 ft | 396 kts | 179° |
| 2026-05-04 17:48 | 43.33870 | 1.88350 | 34948 ft | 395 kts | 179° |
| 2026-05-04 17:48 | 43.28370 | 1.88879 | 34942 ft | 396 kts | 179° |
| 2026-05-04 17:49 | 43.22849 | 1.89410 | 34933 ft | 399 kts | 179° |
| 2026-05-04 17:49 | 43.17346 | 1.89938 | 34934 ft | 398 kts | 179° |
| 2026-05-04 17:50 | 43.11794 | 1.90471 | 34938 ft | 397 kts | 179° |
| 2026-05-04 17:50 | 43.06323 | 1.90994 | 34934 ft | 396 kts | 179° |
| 2026-05-04 17:51 | 43.00820 | 1.91520 | 34931 ft | 396 kts | 179° |
| 2026-05-04 17:51 | 42.95305 | 1.92045 | 34927 ft | 395 kts | 179° |
| 2026-05-04 17:52 | 42.89844 | 1.92565 | 34928 ft | 395 kts | 180° |
| 2026-05-04 17:52 | 42.84334 | 1.93087 | 34936 ft | 397 kts | 180° |
| 2026-05-04 17:53 | 42.78811 | 1.93611 | 34927 ft | 399 kts | 180° |
| 2026-05-04 17:53 | 42.73265 | 1.94136 | 34938 ft | 400 kts | 180° |
| 2026-05-04 17:54 | 42.67678 | 1.94666 | 34943 ft | 402 kts | 179° |
| 2026-05-04 17:54 | 42.62106 | 1.95656 | 34953 ft | 405 kts | 176° |
| 2026-05-04 17:55 | 42.56526 | 1.96825 | 34926 ft | 407 kts | 176° |
| 2026-05-04 17:55 | 42.50922 | 1.97969 | 34926 ft | 408 kts | 176° |
| 2026-05-04 17:56 | 42.45293 | 1.99093 | 34926 ft | 408 kts | 176° |
| 2026-05-04 17:56 | 42.39677 | 2.00209 | 34940 ft | 407 kts | 176° |
| 2026-05-04 17:57 | 42.34087 | 2.01123 | 34943 ft | 403 kts | 180° |
| 2026-05-04 17:57 | 42.28506 | 2.01648 | 34960 ft | 401 kts | 181° |
| 2026-05-04 17:58 | 42.22929 | 2.02146 | 34932 ft | 402 kts | 181° |
| 2026-05-04 17:58 | 42.17372 | 2.02664 | 34922 ft | 401 kts | 181° |
| 2026-05-04 17:59 | 42.11820 | 2.03193 | 34927 ft | 400 kts | 181° |
| 2026-05-04 18:00 | 42.03480 | 2.03992 | 34941 ft | 400 kts | 181° |
| 2026-05-04 18:00 | 41.97948 | 2.04521 | 34953 ft | 399 kts | 181° |
| 2026-05-04 18:01 | 41.92403 | 2.05049 | 34943 ft | 400 kts | 181° |
| 2026-05-04 18:01 | 41.86820 | 2.05580 | 34947 ft | 401 kts | 182° |
| 2026-05-04 18:02 | 41.78422 | 2.06378 | 34923 ft | 404 kts | 182° |
| 2026-05-04 18:02 | 41.72798 | 2.06911 | 34908 ft | 405 kts | 182° |
| 2026-05-04 18:03 | 41.67195 | 2.07440 | 34908 ft | 407 kts | 182° |
| 2026-05-04 18:03 | 41.61538 | 2.07963 | 34909 ft | 408 kts | 182° |
| 2026-05-04 18:04 | 41.55854 | 2.08486 | 34907 ft | 409 kts | 182° |
| 2026-05-04 18:05 | 41.47316 | 2.09274 | 34920 ft | 410 kts | 182° |
| 2026-05-04 18:05 | 41.41653 | 2.09795 | 34922 ft | 410 kts | 182° |
| 2026-05-04 18:06 | 41.33102 | 2.10581 | 34925 ft | 410 kts | 182° |
| 2026-05-04 18:06 | 41.27494 | 2.10473 | 34976 ft | 400 kts | 191° |
| 2026-05-04 18:07 | 41.21936 | 2.09708 | 34966 ft | 400 kts | 191° |
| 2026-05-04 18:07 | 41.16393 | 2.08947 | 34943 ft | 401 kts | 191° |
| 2026-05-04 18:08 | 41.10838 | 2.08207 | 34918 ft | 401 kts | 191° |
| 2026-05-04 18:08 | 41.05281 | 2.07479 | 34919 ft | 400 kts | 191° |
| 2026-05-04 18:09 | 40.94207 | 2.06039 | 34907 ft | 401 kts | 191° |
| 2026-05-04 18:10 | 40.88648 | 2.05319 | 34917 ft | 401 kts | 191° |
| 2026-05-04 18:10 | 40.83089 | 2.04599 | 34908 ft | 401 kts | 191° |
| 2026-05-04 18:11 | 40.77505 | 2.03877 | 34321 ft | 402 kts | 191° |
| 2026-05-04 18:11 | 40.74791 | 2.03530 | 34057 ft | 393 kts | 191° |
| 2026-05-04 18:11 | 40.72065 | 2.03181 | 33455 ft | 393 kts | 191° |
| 2026-05-04 18:12 | 40.69373 | 2.02837 | 33177 ft | 384 kts | 191° |
| 2026-05-04 18:12 | 40.66714 | 2.02495 | 32604 ft | 384 kts | 191° |
| 2026-05-04 18:12 | 40.64080 | 2.02158 | 32323 ft | 376 kts | 192° |
| 2026-05-04 18:12 | 40.61466 | 2.01821 | 31786 ft | 376 kts | 191° |
| 2026-05-04 18:13 | 40.59747 | 2.01600 | 31627 ft | 370 kts | 192° |
| 2026-05-04 18:13 | 40.57184 | 2.01271 | 31117 ft | 370 kts | 192° |
| 2026-05-04 18:13 | 40.51284 | 2.00513 | 30216 ft | 363 kts | 192° |
| 2026-05-04 18:14 | 40.48781 | 2.00192 | 29795 ft | 360 kts | 192° |
| 2026-05-04 18:14 | 40.47100 | 1.99976 | 29479 ft | 358 kts | 192° |
| 2026-05-04 18:14 | 40.44637 | 1.99662 | 29093 ft | 353 kts | 192° |
| 2026-05-04 18:15 | 40.39820 | 1.99048 | 28301 ft | 345 kts | 192° |